Time;durP1;ratioP1;P1;durP2;ratioP2;P2;SDS_P1;SDS_P2;PMS_P1;PMS_P2;Temp;Humidity;BMP_temperature;BMP_pressure;BME280_temperature;BME280_humidity;BME280_pressure;Samples;Min_cycle;Max_cycle;Signal;HPM_P1;HPM_P2
2023/10/24 00:00:57;;;;;;;10.70;7.60;;;;;;;7.53;100.00;97392.15;110168;1241;69254;-67
2023/10/24 00:03:30;;;;;;;8.50;6.50;;;;;;;7.47;100.00;97387.66;110169;1240;67747;-67
2023/10/24 00:06:05;;;;;;;10.90;7.00;;;;;;;7.42;100.00;97387.60;110191;1242;59716;-67
2023/10/24 00:08:37;;;;;;;10.50;7.20;;;;;;;7.42;100.00;97381.40;110185;1240;59656;-67
2023/10/24 00:11:10;;;;;;;8.60;7.30;;;;;;;7.41;100.00;97380.04;110137;1240;70577;-67
2023/10/24 00:13:46;;;;;;;10.20;7.80;;;;;;;7.42;100.00;97377.40;110151;1242;68464;-67
2023/10/24 00:16:22;;;;;;;12.10;8.70;;;;;;;7.40;100.00;97376.30;110121;1242;69757;-67
2023/10/24 00:18:58;;;;;;;9.20;7.40;;;;;;;7.38;100.00;97373.44;110142;1240;59688;-67
2023/10/24 00:21:31;;;;;;;9.80;7.00;;;;;;;7.38;100.00;97376.25;110243;1242;59736;-68
2023/10/24 00:24:11;;;;;;;10.50;7.40;;;;;;;7.37;100.00;97374.58;110156;1242;71495;-67
2023/10/24 00:26:49;;;;;;;9.10;6.50;;;;;;;7.36;100.00;97377.55;110161;1243;69223;-67
2023/10/24 00:29:22;;;;;;;8.10;6.20;;;;;;;7.34;100.00;97379.79;110149;1240;68031;-67
2023/10/24 00:31:58;;;;;;;8.70;6.50;;;;;;;7.31;100.00;97383.09;110140;1240;59741;-67
2023/10/24 00:34:31;;;;;;;10.50;7.10;;;;;;;7.31;100.00;97380.70;110143;1240;59685;-67
2023/10/24 00:37:06;;;;;;;11.50;7.40;;;;;;;7.27;100.00;97384.52;110114;1240;70732;-68
2023/10/24 00:39:42;;;;;;;8.10;5.90;;;;;;;7.25;100.00;97385.16;110192;1242;69264;-66
2023/10/24 00:42:17;;;;;;;9.50;6.80;;;;;;;7.24;100.00;97382.77;110118;1242;69107;-66
2023/10/24 00:44:54;;;;;;;8.10;5.90;;;;;;;7.23;100.00;97386.67;110128;1242;59748;-66
2023/10/24 00:47:38;;;;;;;9.40;6.30;;;;;;;7.22;100.00;97382.08;110178;1240;59771;-68
2023/10/24 00:50:16;;;;;;;7.40;5.10;;;;;;;7.23;100.00;97381.82;110144;1241;71374;-66
2023/10/24 00:52:48;;;;;;;8.80;6.70;;;;;;;7.24;100.00;97376.20;110153;1242;69135;-66
2023/10/24 00:55:23;;;;;;;8.30;5.50;;;;;;;7.24;100.00;97370.14;110123;1243;69330;-68
2023/10/24 00:58:01;;;;;;;7.30;5.00;;;;;;;7.27;100.00;97366.35;110175;1243;59689;-66
2023/10/24 01:00:49;;;;;;;8.70;5.50;;;;;;;7.28;100.00;97360.23;110177;1242;59705;-67
2023/10/24 01:03:26;;;;;;;10.50;6.00;;;;;;;7.30;100.00;97353.15;110187;1240;70448;-66
2023/10/24 01:06:06;;;;;;;9.20;5.70;;;;;;;7.31;100.00;97352.40;110176;1241;68508;-67
2023/10/24 01:08:40;;;;;;;14.00;10.00;;;;;;;7.30;100.00;97351.77;110131;1240;69345;-67
2023/10/24 01:11:16;;;;;;;10.80;7.80;;;;;;;7.28;100.00;97351.52;110171;1240;59672;-67
2023/10/24 01:13:56;;;;;;;10.10;7.30;;;;;;;7.30;100.00;97352.30;110193;1241;59668;-67
2023/10/24 01:16:26;;;;;;;10.30;7.70;;;;;;;7.29;100.00;97351.65;110097;1240;70600;-67
2023/10/24 01:19:02;;;;;;;11.00;7.80;;;;;;;7.30;100.00;97350.73;110150;1243;69230;-67
2023/10/24 01:21:47;;;;;;;11.40;8.10;;;;;;;7.30;100.00;97349.17;110119;1240;69293;-67
2023/10/24 01:24:18;;;;;;;15.00;11.40;;;;;;;7.29;100.00;97342.66;110146;1240;59763;-67
2023/10/24 01:26:55;;;;;;;13.70;10.30;;;;;;;7.26;100.00;97345.44;110129;1244;59721;-67
2023/10/24 01:29:30;;;;;;;11.80;8.90;;;;;;;7.25;100.00;97345.67;110116;1240;72369;-67
2023/10/24 01:32:03;;;;;;;11.00;7.60;;;;;;;7.23;100.00;97346.65;110173;1243;68531;-66
2023/10/24 01:34:33;;;;;;;12.50;9.10;;;;;;;7.20;100.00;97345.41;110104;1243;69344;-67
2023/10/24 01:37:09;;;;;;;9.60;7.60;;;;;;;7.19;100.00;97342.73;110165;1240;59707;-67
2023/10/24 01:39:41;;;;;;;13.10;8.90;;;;;;;7.19;100.00;97345.52;110110;1242;59737;-67
2023/10/24 01:42:12;;;;;;;11.20;7.60;;;;;;;7.19;100.00;97343.75;110178;1242;71536;-67
2023/10/24 01:44:43;;;;;;;12.40;8.10;;;;;;;7.19;100.00;97346.37;110142;1242;68553;-67
2023/10/24 01:47:17;;;;;;;10.90;7.90;;;;;;;7.19;100.00;97343.27;110108;1243;68960;-67
2023/10/24 01:49:49;;;;;;;12.00;8.50;;;;;;;7.21;100.00;97340.35;110153;1241;59776;-66
2023/10/24 01:52:25;;;;;;;13.80;8.70;;;;;;;7.23;100.00;97340.92;110160;1242;59689;-66
2023/10/24 01:55:05;;;;;;;12.80;8.60;;;;;;;7.28;100.00;97336.31;110142;1240;70600;-67
2023/10/24 01:57:50;;;;;;;13.20;9.10;;;;;;;7.32;100.00;97338.48;110148;1242;69414;-67
2023/10/24 02:00:24;;;;;;;13.00;10.30;;;;;;;7.33;100.00;97337.22;110093;1244;69186;-67
2023/10/24 02:02:57;;;;;;;10.90;8.10;;;;;;;7.29;100.00;97338.65;110157;1242;59756;-66
2023/10/24 02:05:32;;;;;;;11.90;8.30;;;;;;;7.29;100.00;97343.31;110175;1242;59679;-67
2023/10/24 02:08:04;;;;;;;12.90;8.30;;;;;;;7.32;100.00;97339.70;110117;1241;71214;-66
2023/10/24 02:10:39;;;;;;;12.80;10.00;;;;;;;7.36;100.00;97341.70;110145;1243;69082;-67
2023/10/24 02:13:15;;;;;;;9.80;8.20;;;;;;;7.40;100.00;97347.17;110172;1240;69313;-67
2023/10/24 02:15:53;;;;;;;11.80;9.90;;;;;;;7.43;100.00;97344.55;110080;1242;59834;-68
2023/10/24 02:18:31;;;;;;;11.10;7.50;;;;;;;7.46;100.00;97337.23;110166;1243;59728;-66
2023/10/24 02:21:08;;;;;;;8.40;7.00;;;;;;;7.47;100.00;97332.55;110095;1242;71300;-66
2023/10/24 02:23:39;;;;;;;9.70;6.70;;;;;;;7.49;100.00;97333.44;110151;1240;69427;-66
2023/10/24 02:26:17;;;;;;;7.60;5.90;;;;;;;7.52;100.00;97332.17;110139;1240;68337;-68
2023/10/24 02:28:48;;;;;;;9.30;7.10;;;;;;;7.57;100.00;97333.11;110188;1241;59697;-67
2023/10/24 02:31:22;;;;;;;9.20;7.20;;;;;;;7.62;100.00;97335.77;110188;1241;59683;-67
2023/10/24 02:33:55;;;;;;;10.40;7.70;;;;;;;7.66;100.00;97342.06;110197;1244;71445;-67
2023/10/24 02:36:28;;;;;;;12.20;9.10;;;;;;;7.70;100.00;97334.40;110151;1242;69121;-67
2023/10/24 02:39:00;;;;;;;12.50;8.80;;;;;;;7.74;100.00;97335.02;110156;1243;69270;-67
2023/10/24 02:41:31;;;;;;;11.80;8.20;;;;;;;7.75;100.00;97337.08;110131;1242;59682;-67
2023/10/24 02:44:07;;;;;;;11.90;8.10;;;;;;;7.75;100.00;97338.25;110095;1243;59648;-66
2023/10/24 02:46:40;;;;;;;13.30;8.70;;;;;;;7.77;100.00;97338.30;110176;1243;71450;-67
2023/10/24 02:49:10;;;;;;;9.80;7.50;;;;;;;7.80;100.00;97341.57;110174;1242;69263;-67
2023/10/24 02:51:40;;;;;;;9.20;6.40;;;;;;;7.81;100.00;97343.27;110121;1240;69265;-66
2023/10/24 02:54:13;;;;;;;7.70;6.10;;;;;;;7.81;100.00;97344.30;110144;1241;60141;-66
2023/10/24 02:56:43;;;;;;;8.50;6.00;;;;;;;7.82;100.00;97345.77;110137;1240;59687;-66
2023/10/24 02:59:19;;;;;;;9.00;6.40;;;;;;;7.85;100.00;97344.73;110144;1240;71839;-69
2023/10/24 03:01:49;;;;;;;8.10;6.00;;;;;;;7.89;100.00;97338.05;110144;1243;69522;-68
2023/10/24 03:04:25;;;;;;;10.60;7.00;;;;;;;7.92;100.00;97338.54;110130;1240;69084;-68
2023/10/24 03:07:00;;;;;;;9.00;6.60;;;;;;;7.97;100.00;97339.65;110151;1242;59679;-68
2023/10/24 03:09:35;;;;;;;7.50;6.30;;;;;;;8.01;100.00;97338.36;110119;1243;59672;-67
2023/10/24 03:12:10;;;;;;;9.10;6.90;;;;;;;8.03;100.00;97342.41;110188;1240;71374;-66
2023/10/24 03:14:40;;;;;;;8.60;6.30;;;;;;;8.01;100.00;97338.85;110160;1243;69390;-68
2023/10/24 03:17:10;;;;;;;;;;;;;;;8.01;100.00;97332.94;110095;1240;68346;-64
2023/10/24 03:19:41;;;;;;;8.20;5.70;;;;;;;8.03;100.00;97336.13;110133;1240;59729;-67
2023/10/24 03:22:13;;;;;;;8.10;6.70;;;;;;;8.05;100.00;97333.05;110148;1242;59692;-67
2023/10/24 03:24:46;;;;;;;10.00;6.80;;;;;;;8.09;100.00;97337.48;110151;1242;71030;-67
2023/10/24 03:27:17;;;;;;;9.10;6.80;;;;;;;8.13;100.00;97342.95;110140;1244;69133;-67
2023/10/24 03:29:50;;;;;;;9.50;7.00;;;;;;;8.17;100.00;97343.39;110155;1242;67668;-68
2023/10/24 03:32:20;;;;;;;10.40;6.70;;;;;;;8.21;100.00;97345.97;110187;1240;59743;-67
2023/10/24 03:34:50;;;;;;;8.90;6.80;;;;;;;8.23;100.00;97347.49;110172;1244;59719;-66
2023/10/24 03:37:22;;;;;;;8.00;6.20;;;;;;;8.27;100.00;97348.31;110172;1240;70644;-67
2023/10/24 03:39:54;;;;;;;7.50;6.40;;;;;;;8.30;100.00;97347.57;110130;1243;68517;-67
2023/10/24 03:42:25;;;;;;;7.90;6.20;;;;;;;8.35;100.00;97342.77;110106;1241;68807;-67
2023/10/24 03:44:55;;;;;;;9.10;6.40;;;;;;;8.36;100.00;97340.09;110155;1242;59717;-67
2023/10/24 03:47:26;;;;;;;9.40;6.70;;;;;;;8.37;100.00;97344.39;110122;1242;59627;-67
2023/10/24 03:49:56;;;;;;;8.30;6.10;;;;;;;8.37;100.00;97346.98;110167;1243;71539;-67
2023/10/24 03:52:27;;;;;;;9.50;6.40;;;;;;;8.36;100.00;97349.64;110134;1240;69477;-67
2023/10/24 03:54:59;;;;;;;8.80;6.50;;;;;;;8.35;100.00;97357.47;110172;1241;68654;-68
2023/10/24 03:57:29;;;;;;;6.60;5.10;;;;;;;8.37;100.00;97358.13;110161;1242;59759;-67
2023/10/24 04:00:00;;;;;;;8.90;6.80;;;;;;;8.38;100.00;97360.09;110163;1242;59625;-66
2023/10/24 04:02:40;;;;;;;8.20;6.50;;;;;;;8.40;100.00;97353.02;110141;1240;71254;-67
2023/10/24 04:05:10;;;;;;;10.90;6.70;;;;;;;8.43;100.00;97351.28;110173;1244;70069;-67
2023/10/24 04:07:39;;;;;;;9.90;7.40;;;;;;;8.46;100.00;97352.83;110118;1240;68971;-67
2023/10/24 04:10:09;;;;;;;9.40;7.30;;;;;;;8.44;100.00;97349.99;110145;1242;59738;-68
2023/10/24 04:12:39;;;;;;;8.50;6.50;;;;;;;8.41;100.00;97350.38;110121;1242;59660;-67
2023/10/24 04:15:10;;;;;;;7.90;5.40;;;;;;;8.38;100.00;97352.48;110128;1240;71529;-67
2023/10/24 04:17:41;;;;;;;7.70;5.90;;;;;;;8.36;100.00;97355.02;110168;1240;68783;-67
2023/10/24 04:20:12;;;;;;;9.50;6.20;;;;;;;8.35;100.00;97354.52;110160;1241;69378;-67
2023/10/24 04:22:47;;;;;;;9.10;6.60;;;;;;;8.35;100.00;97347.58;110136;1242;59744;-67
2023/10/24 04:25:17;;;;;;;9.30;7.20;;;;;;;8.37;100.00;97342.33;110192;1240;59716;-67
2023/10/24 04:27:47;;;;;;;9.80;6.80;;;;;;;8.37;100.00;97342.27;110143;1243;71419;-67
2023/10/24 04:30:17;;;;;;;10.20;6.70;;;;;;;8.39;100.00;97339.23;110162;1243;69081;-67
2023/10/24 04:32:48;;;;;;;9.70;6.50;;;;;;;8.40;100.00;97335.30;110140;1240;69305;-67
2023/10/24 04:35:18;;;;;;;8.80;6.50;;;;;;;8.42;100.00;97332.27;110116;1242;59708;-67
2023/10/24 04:37:48;;;;;;;8.10;6.80;;;;;;;8.44;100.00;97323.14;110160;1240;59693;-67
2023/10/24 04:40:19;;;;;;;8.70;5.90;;;;;;;8.45;100.00;97329.11;110115;1240;70516;-66
2023/10/24 04:42:51;;;;;;;8.00;6.30;;;;;;;8.47;100.00;97336.48;110158;1244;69057;-67
2023/10/24 04:45:21;;;;;;;8.70;6.40;;;;;;;8.48;100.00;97344.52;110127;1240;69297;-67
2023/10/24 04:47:50;;;;;;;8.30;6.30;;;;;;;8.51;100.00;97344.35;110130;1240;59667;-67
2023/10/24 04:50:20;;;;;;;9.40;7.30;;;;;;;8.54;100.00;97345.70;110171;1242;59669;-67
2023/10/24 04:52:50;;;;;;;11.10;7.10;;;;;;;8.56;100.00;97346.95;110126;1240;71665;-67
2023/10/24 04:55:20;;;;;;;10.30;8.40;;;;;;;8.58;100.00;97352.71;110182;1244;69243;-67
2023/10/24 04:57:52;;;;;;;11.60;8.50;;;;;;;8.59;100.00;97363.58;110128;1244;69306;-68
2023/10/24 05:00:24;;;;;;;9.90;7.90;;;;;;;8.59;100.00;97367.80;110083;1243;59745;-68
2023/10/24 05:02:54;;;;;;;8.60;6.80;;;;;;;8.58;100.00;97367.14;110134;1243;59665;-68
2023/10/24 05:05:24;;;;;;;13.20;9.00;;;;;;;8.59;100.00;97371.25;110176;1243;70689;-70
2023/10/24 05:07:54;;;;;;;11.10;8.60;;;;;;;8.59;100.00;97377.36;110133;1242;69271;-69
2023/10/24 05:10:25;;;;;;;12.20;9.20;;;;;;;8.59;100.00;97377.14;110134;1240;69302;-69
2023/10/24 05:12:56;;;;;;;11.70;9.20;;;;;;;8.63;100.00;97380.23;110162;1242;59625;-68
2023/10/24 05:15:26;;;;;;;12.50;8.60;;;;;;;8.67;100.00;97383.10;110158;1245;59745;-68
2023/10/24 05:17:56;;;;;;;9.90;8.10;;;;;;;8.71;100.00;97378.13;110132;1240;71650;-68
2023/10/24 05:20:27;;;;;;;10.00;8.90;;;;;;;8.76;100.00;97370.86;110175;1243;69246;-68
2023/10/24 05:22:57;;;;;;;10.90;8.30;;;;;;;8.79;100.00;97362.30;110087;1240;68508;-68
2023/10/24 05:25:27;;;;;;;10.90;8.40;;;;;;;8.84;100.00;97356.23;110152;1241;59692;-67
2023/10/24 05:27:57;;;;;;;11.20;8.40;;;;;;;8.89;100.00;97354.13;110171;1242;59703;-69
2023/10/24 05:30:27;;;;;;;11.60;8.30;;;;;;;8.94;100.00;97352.79;110165;1241;71317;-69
2023/10/24 05:32:58;;;;;;;10.80;8.80;;;;;;;9.00;100.00;97355.36;110106;1241;68373;-67
2023/10/24 05:35:28;;;;;;;10.30;8.90;;;;;;;9.05;100.00;97358.45;110115;1240;69266;-67
2023/10/24 05:37:57;;;;;;;13.40;8.90;;;;;;;9.11;100.00;97356.84;110140;1242;59807;-67
2023/10/24 05:40:27;;;;;;;10.30;7.30;;;;;;;9.17;100.00;97365.27;110149;1242;59740;-68
2023/10/24 05:42:57;;;;;;;10.60;7.00;;;;;;;9.23;100.00;97369.59;110126;1244;70824;-66
2023/10/24 05:45:27;;;;;;;8.90;6.60;;;;;;;9.29;100.00;97371.48;110140;1240;70051;-69
2023/10/24 05:47:57;;;;;;;12.00;8.10;;;;;;;9.35;100.00;97369.00;110207;1243;69305;-68
2023/10/24 05:50:30;;;;;;;11.20;8.50;;;;;;;9.39;100.00;97364.87;110194;1242;59687;-69
2023/10/24 05:53:00;;;;;;;11.40;7.60;;;;;;;9.43;100.00;97369.28;110167;1240;59800;-68
2023/10/24 05:55:30;;;;;;;10.50;7.30;;;;;;;9.48;100.00;97373.29;110199;1242;70589;-70
2023/10/24 05:58:01;;;;;;;9.90;7.20;;;;;;;9.54;100.00;97369.38;110149;1242;69259;-69
2023/10/24 06:00:31;;;;;;;14.60;10.70;;;;;;;9.59;100.00;97366.06;110149;1245;69513;-69
2023/10/24 06:03:00;;;;;;;11.80;9.80;;;;;;;9.62;100.00;97366.24;110132;1240;59763;-68
2023/10/24 06:05:30;;;;;;;9.10;8.00;;;;;;;9.65;100.00;97363.02;110172;1244;59637;-68
2023/10/24 06:08:00;;;;;;;9.70;7.60;;;;;;;9.69;100.00;97366.23;110159;1240;72423;-68
2023/10/24 06:10:29;;;;;;;9.20;7.60;;;;;;;9.74;100.00;97359.30;110153;1245;69247;-68
2023/10/24 06:13:01;;;;;;;9.70;7.20;;;;;;;9.79;100.00;97362.80;110165;1240;69297;-68
2023/10/24 06:15:31;;;;;;;7.80;6.60;;;;;;;9.84;100.00;97370.95;110159;1242;59716;-68
2023/10/24 06:18:01;;;;;;;9.40;6.90;;;;;;;9.90;100.00;97375.60;110133;1243;59626;-68
2023/10/24 06:20:30;;;;;;;11.50;8.80;;;;;;;9.96;100.00;97380.75;110176;1240;71338;-69
2023/10/24 06:23:00;;;;;;;9.20;6.60;;;;;;;10.00;100.00;97383.73;110176;1240;69308;-67
2023/10/24 06:25:39;;;;;;;7.20;6.10;;;;;;;10.07;100.00;97377.16;110141;1243;68826;-68
2023/10/24 06:28:09;;;;;;;8.90;6.30;;;;;;;10.16;100.00;97371.79;110155;1242;59742;-68
2023/10/24 06:30:41;;;;;;;10.30;8.20;;;;;;;10.29;100.00;97370.42;110174;1242;59657;-69
2023/10/24 06:33:10;;;;;;;9.00;7.80;;;;;;;10.40;100.00;97366.96;110256;1242;71937;-67
2023/10/24 06:35:40;;;;;;;9.00;7.10;;;;;;;10.58;100.00;97366.55;110220;1243;69083;-69
2023/10/24 06:38:09;;;;;;;8.90;7.10;;;;;;;10.80;100.00;97362.67;110190;1243;69324;-69
2023/10/24 06:40:43;;;;;;;9.90;5.80;;;;;;;11.02;100.00;97352.77;110179;1244;59687;-70
2023/10/24 06:43:13;;;;;;;8.90;7.10;;;;;;;11.29;100.00;97354.56;110190;1240;59699;-69
2023/10/24 06:45:43;;;;;;;11.30;9.60;;;;;;;11.54;100.00;97353.16;110200;1243;72001;-70
2023/10/24 06:48:13;;;;;;;13.90;10.70;;;;;;;11.83;100.00;97349.91;110165;1243;69830;-69
2023/10/24 06:50:43;;;;;;;12.40;8.90;;;;;;;12.19;100.00;97343.71;110147;1245;68593;-69
2023/10/24 06:53:13;;;;;;;10.30;8.80;;;;;;;12.54;100.00;97337.89;110220;1240;59696;-69
2023/10/24 06:55:43;;;;;;;10.70;8.80;;;;;;;12.88;100.00;97341.07;110292;1240;59665;-70
2023/10/24 06:58:12;;;;;;;8.90;6.30;;;;;;;13.24;100.00;97354.33;110241;1242;71409;-70
2023/10/24 07:00:43;;;;;;;12.30;8.70;;;;;;;13.51;100.00;97363.34;110235;1240;69270;-70
2023/10/24 07:03:13;;;;;;;7.90;7.10;;;;;;;13.64;100.00;97369.05;110133;1240;69712;-68
2023/10/24 07:05:48;;;;;;;;;;;;;;;13.76;100.00;97366.85;110177;1244;59672;-68
2023/10/24 07:08:20;;;;;;;6.80;5.00;;;;;;;13.89;98.89;97362.55;110172;1242;59664;-68
2023/10/24 07:10:50;;;;;;;6.00;4.60;;;;;;;13.97;96.54;97363.39;110132;1242;71426;-69
2023/10/24 07:13:19;;;;;;;5.70;3.90;;;;;;;14.03;93.36;97357.88;110145;1241;69238;-70
2023/10/24 07:15:49;;;;;;;4.60;3.50;;;;;;;14.07;90.96;97351.92;110124;1240;68888;-69
2023/10/24 07:18:19;;;;;;;8.30;5.90;;;;;;;14.10;93.88;97346.52;110140;1243;59757;-70
2023/10/24 07:20:48;;;;;;;7.90;6.10;;;;;;;14.18;96.46;97346.15;110129;1242;59745;-70
2023/10/24 07:23:18;;;;;;;8.40;7.00;;;;;;;14.27;95.22;97345.34;110199;1243;70717;-67
2023/10/24 07:25:56;;;;;;;7.30;6.50;;;;;;;14.35;93.06;97352.21;110133;1243;69043;-70
2023/10/24 07:28:26;;;;;;;8.40;6.50;;;;;;;14.44;93.21;97353.27;110106;1240;68580;-70
2023/10/24 07:30:55;;;;;;;10.70;8.30;;;;;;;14.43;94.39;97350.80;110110;1240;59707;-68
2023/10/24 07:33:25;;;;;;;;;;;;;;;14.49;93.87;97351.86;110118;1240;59659;-68
2023/10/24 07:35:55;;;;;;;11.00;6.30;;;;;;;14.53;92.06;97347.84;110188;1240;70962;-68
2023/10/24 07:38:24;;;;;;;6.60;4.90;;;;;;;14.65;91.60;97342.89;110116;1242;69312;-68
2023/10/24 07:40:54;;;;;;;;;;;;;;;14.79;91.49;97338.64;110155;1243;68368;-70
2023/10/24 07:43:24;;;;;;;;;;;;;;;15.03;92.65;97334.48;110184;1243;59667;-71
2023/10/24 07:45:53;;;;;;;4.70;3.40;;;;;;;15.32;93.18;97327.96;110301;1242;59768;-73
2023/10/24 07:48:24;;;;;;;4.70;3.40;;;;;;;15.62;90.50;97324.41;110310;1240;70407;-70
2023/10/24 07:50:57;;;;;;;5.30;3.20;;;;;;;15.93;88.32;97318.34;110314;1242;68192;-69
2023/10/24 07:53:26;;;;;;;4.30;3.40;;;;;;;16.22;89.04;97313.73;110285;1244;69260;-68
2023/10/24 07:55:55;;;;;;;4.90;3.20;;;;;;;16.52;86.59;97311.87;110139;1240;59807;-69
2023/10/24 07:58:24;;;;;;;2.80;2.50;;;;;;;16.85;83.09;97321.48;110139;1242;59704;-69
2023/10/24 08:00:54;;;;;;;3.50;2.80;;;;;;;17.14;83.91;97324.00;110180;1240;71377;-68
2023/10/24 08:03:23;;;;;;;;;;;;;;;17.36;81.27;97317.02;110170;1240;70087;-68
2023/10/24 08:05:53;;;;;;;3.20;2.50;;;;;;;17.57;79.83;97313.95;110102;1242;69349;-69
2023/10/24 08:08:22;;;;;;;4.10;3.10;;;;;;;17.74;76.21;97311.71;110153;1240;59800;-69
2023/10/24 08:10:52;;;;;;;6.30;3.50;;;;;;;18.04;74.33;97303.65;110218;1244;59678;-69
2023/10/24 08:13:22;;;;;;;4.80;3.60;;;;;;;18.44;74.12;97301.08;110217;1240;71423;-69
2023/10/24 08:15:52;;;;;;;5.90;3.50;;;;;;;18.85;73.15;97307.42;110115;1246;69682;-69
2023/10/24 08:18:21;;;;;;;4.40;2.80;;;;;;;19.17;67.80;97302.98;110092;1243;69799;-69
2023/10/24 08:20:51;;;;;;;3.90;3.00;;;;;;;19.42;71.10;97300.82;110104;1242;59728;-70
2023/10/24 08:23:21;;;;;;;3.40;2.20;;;;;;;19.60;68.89;97293.82;110268;1243;59700;-69
2023/10/24 08:25:51;;;;;;;3.30;2.20;;;;;;;19.74;66.08;97287.36;110132;1244;71407;-69
2023/10/24 08:28:21;;;;;;;3.60;2.00;;;;;;;19.99;68.95;97278.80;110280;1243;68608;-69
2023/10/24 08:30:50;;;;;;;4.80;2.00;;;;;;;20.19;67.37;97274.20;110176;1240;68052;-68
2023/10/24 08:33:20;;;;;;;3.90;1.90;;;;;;;20.44;62.52;97270.89;110218;1240;59734;-68
2023/10/24 08:35:49;;;;;;;2.60;2.00;;;;;;;20.69;60.35;97272.23;110115;1240;59661;-68
2023/10/24 08:38:18;;;;;;;3.00;1.80;;;;;;;20.91;59.11;97268.35;110153;1240;70624;-70
2023/10/24 08:40:50;;;;;;;2.90;1.60;;;;;;;21.04;58.25;97272.27;110111;1242;69274;-68
2023/10/24 08:43:21;;;;;;;;;;;;;;;21.12;57.47;97262.70;110134;1240;68304;-69
2023/10/24 08:45:52;;;;;;;2.90;1.80;;;;;;;21.16;56.02;97264.41;110155;1243;59716;-69
2023/10/24 08:48:21;;;;;;;4.20;2.20;;;;;;;21.22;56.37;97265.23;110190;1242;59666;-68
2023/10/24 08:50:50;;;;;;;;;;;;;;;21.20;54.22;97268.19;110153;1244;70689;-68
2023/10/24 08:53:19;;;;;;;;;;;;;;;21.03;54.18;97276.63;110152;1242;69352;-67
2023/10/24 08:55:54;;;;;;;3.90;2.10;;;;;;;20.87;55.13;97271.23;110170;1242;69584;-68
2023/10/24 08:58:23;;;;;;;2.80;2.30;;;;;;;20.76;54.54;97263.70;110116;1242;59678;-68
2023/10/24 09:00:54;;;;;;;4.40;2.30;;;;;;;20.80;55.21;97260.08;110139;1242;59713;-67
2023/10/24 09:03:23;;;;;;;;;;;;;;;21.02;55.26;97253.32;110155;1242;71403;-68
2023/10/24 09:05:53;;;;;;;3.80;2.30;;;;;;;21.21;54.01;97257.48;110117;1243;68399;-68
2023/10/24 09:08:23;;;;;;;3.50;2.20;;;;;;;21.59;55.46;97247.73;110146;1244;69265;-67
2023/10/24 09:10:52;;;;;;;5.30;2.50;;;;;;;22.01;53.24;97241.83;110111;1242;60193;-68
2023/10/24 09:13:26;;;;;;;4.00;2.30;;;;;;;22.05;51.94;97241.21;110156;1242;59742;-70
2023/10/24 09:16:06;;;;;;;3.80;2.70;;;;;;;22.42;53.09;97235.36;110160;1244;70790;-70
2023/10/24 09:18:38;;;;;;;4.70;2.30;;;;;;;22.42;50.72;97234.70;109764;1243;607874;-70
2023/10/24 09:21:08;;;;;;;4.00;2.20;;;;;;;22.70;51.95;97243.64;110188;1244;69874;-68
2023/10/24 09:23:38;;;;;;;3.90;2.00;;;;;;;22.72;49.56;97244.10;110139;1241;59759;-68
2023/10/24 09:26:08;;;;;;;3.90;2.40;;;;;;;22.92;50.35;97236.58;110169;1241;59685;-68
2023/10/24 09:28:37;;;;;;;;;;;;;;;23.26;49.86;97237.84;110162;1244;71977;-70
2023/10/24 09:31:10;;;;;;;3.40;2.20;;;;;;;23.43;49.16;97226.86;110274;1245;68452;-68
2023/10/24 09:33:40;;;;;;;3.20;2.10;;;;;;;23.90;48.32;97215.64;110065;1242;67566;-68
2023/10/24 09:36:09;;;;;;;4.70;2.30;;;;;;;24.21;46.78;97205.71;110097;1240;59660;-68
2023/10/24 09:38:45;;;;;;;3.70;2.00;;;;;;;24.32;46.90;97213.28;110191;1244;59688;-68
2023/10/24 09:41:16;;;;;;;4.40;2.10;;;;;;;24.31;45.90;97214.39;110102;1242;71307;-67
2023/10/24 09:43:48;;;;;;;3.60;2.20;;;;;;;24.09;45.37;97207.81;110166;1242;69908;-69
2023/10/24 09:46:22;;;;;;;3.40;2.20;;;;;;;23.88;44.95;97200.00;110151;1243;69120;-67
2023/10/24 09:48:55;;;;;;;3.30;2.00;;;;;;;23.66;45.57;97193.27;110128;1242;59713;-68
2023/10/24 09:51:25;;;;;;;3.60;2.10;;;;;;;23.79;45.17;97185.27;110186;1242;59682;-67
2023/10/24 09:53:55;;;;;;;3.10;1.90;;;;;;;24.04;45.21;97177.35;110117;1240;70900;-67
2023/10/24 09:56:26;;;;;;;3.30;2.30;;;;;;;24.30;44.68;97179.67;110173;1241;69194;-67
2023/10/24 09:58:56;;;;;;;3.70;2.30;;;;;;;24.28;43.62;97177.58;110134;1243;70326;-68
2023/10/24 10:01:27;;;;;;;;;;;;;;;24.23;44.18;97170.87;110151;1240;59704;-70
2023/10/24 10:03:58;;;;;;;3.80;2.20;;;;;;;24.04;44.01;97174.15;110295;1244;59666;-68
2023/10/24 10:06:28;;;;;;;3.80;2.40;;;;;;;23.84;44.29;97175.14;110307;1240;71950;-68
2023/10/24 10:09:19;;;;;;;3.30;2.00;;;;;;;23.65;44.72;97168.78;110135;1242;69797;-67
2023/10/24 10:11:50;;;;;;;3.80;2.00;;;;;;;23.65;44.92;97173.19;110108;1242;69324;-67
2023/10/24 10:15:00;;;;;;;3.90;1.90;;;;;;;23.57;44.48;97169.84;110142;1244;59804;-67
2023/10/24 10:17:38;;;;;;;3.20;1.90;;;;;;;23.26;44.38;97170.23;110092;1245;59735;-68
2023/10/24 10:20:13;;;;;;;3.80;2.20;;;;;;;23.08;44.99;97166.98;110199;1242;71895;-69
2023/10/24 10:23:18;;;;;;;5.00;3.10;;;;;;;22.99;45.33;97164.79;110197;1242;69852;-68
2023/10/24 10:26:06;;;;;;;4.60;3.40;;;;;;;22.78;45.86;97160.13;110220;1240;68931;-68
2023/10/24 10:28:41;;;;;;;5.40;3.30;;;;;;;22.77;46.13;97152.52;110225;1242;59698;-69
2023/10/24 10:31:33;;;;;;;4.10;3.20;;;;;;;22.84;46.32;97152.98;110179;1242;59732;-68
2023/10/24 10:34:34;;;;;;;5.10;3.50;;;;;;;22.83;46.20;97148.02;110140;1242;71872;-68
2023/10/24 10:37:05;;;;;;;4.20;2.80;;;;;;;22.81;46.52;97149.80;110175;1244;69216;-67
2023/10/24 10:39:34;;;;;;;4.40;3.10;;;;;;;22.82;46.30;97152.94;110152;1242;68796;-67
2023/10/24 10:42:04;;;;;;;4.90;3.20;;;;;;;22.80;46.17;97145.42;110176;1242;59758;-70
2023/10/24 10:44:36;;;;;;;3.90;2.80;;;;;;;22.72;46.16;97143.48;110154;1242;59740;-67
2023/10/24 10:47:13;;;;;;;3.30;2.20;;;;;;;22.69;46.21;97141.81;110155;1240;71647;-68
2023/10/24 10:49:50;;;;;;;4.00;2.40;;;;;;;22.63;46.39;97140.09;110108;1242;69925;-69
2023/10/24 10:52:22;;;;;;;3.80;2.10;;;;;;;22.52;46.48;97131.16;110121;1240;69314;-68
2023/10/24 10:55:16;;;;;;;4.80;2.20;;;;;;;22.32;46.81;97131.91;110108;1243;59665;-68
2023/10/24 10:58:10;;;;;;;2.90;1.80;;;;;;;22.27;47.04;97126.78;110134;1242;59709;-67
2023/10/24 11:00:59;;;;;;;2.40;1.60;;;;;;;22.28;47.08;97118.39;110094;1240;70988;-68
2023/10/24 11:03:39;;;;;;;2.50;1.30;;;;;;;22.32;47.15;97106.88;110133;1242;69219;-68
2023/10/24 11:06:14;;;;;;;3.50;1.90;;;;;;;22.37;46.71;97104.78;110274;1244;69084;-69
2023/10/24 11:08:50;;;;;;;2.70;1.70;;;;;;;22.28;46.34;97097.83;110109;1245;59722;-69
2023/10/24 11:11:20;;;;;;;2.40;1.40;;;;;;;22.25;46.78;97090.39;110141;1240;59741;-69
2023/10/24 11:13:51;;;;;;;2.50;1.60;;;;;;;22.30;46.89;97087.40;110149;1243;70443;-68
2023/10/24 11:16:21;;;;;;;3.60;1.80;;;;;;;22.35;46.80;97085.35;110110;1242;69202;-68
2023/10/24 11:19:06;;;;;;;3.50;1.80;;;;;;;22.34;46.59;97077.08;110179;1242;68991;-68
2023/10/24 11:21:36;;;;;;;3.40;1.80;;;;;;;22.27;46.38;97080.09;110235;1243;59776;-67
2023/10/24 11:24:07;;;;;;;3.10;1.60;;;;;;;22.21;46.41;97078.58;110207;1242;59672;-69
2023/10/24 11:26:37;;;;;;;4.50;2.00;;;;;;;22.22;46.67;97074.81;110171;1241;71004;-68
2023/10/24 11:29:09;;;;;;;3.80;2.00;;;;;;;22.29;46.65;97070.89;110157;1241;69169;-68
2023/10/24 11:31:42;;;;;;;3.50;1.90;;;;;;;22.39;46.67;97066.79;110140;1243;69147;-68
2023/10/24 11:34:13;;;;;;;2.40;1.70;;;;;;;22.56;46.53;97063.90;110116;1242;60146;-69
2023/10/24 11:36:46;;;;;;;3.00;1.70;;;;;;;22.74;46.13;97060.31;110128;1241;59729;-68
2023/10/24 11:39:15;;;;;;;2.60;1.70;;;;;;;22.94;45.78;97056.05;110144;1242;71391;-67
2023/10/24 11:41:45;;;;;;;2.00;1.40;;;;;;;23.18;45.06;97051.16;110276;1243;68483;-68
2023/10/24 11:44:17;;;;;;;2.40;1.50;;;;;;;23.44;44.47;97051.08;110109;1240;68586;-68
2023/10/24 11:46:46;;;;;;;2.40;1.50;;;;;;;24.04;44.50;97042.92;110100;1242;59747;-68
2023/10/24 11:49:16;;;;;;;3.70;1.80;;;;;;;24.81;42.51;97031.45;110154;1240;59681;-67